createdAt,value
2022-11-16T00:00:36.458Z,83.62
2022-11-16T00:02:40.469Z,83.97
2022-11-16T00:04:43.171Z,83.90
2022-11-16T00:06:46.406Z,84.00
2022-11-16T00:09:11.658Z,84.49
2022-11-16T00:11:17.994Z,84.70
2022-11-16T00:13:21.023Z,84.74
2022-11-16T00:15:23.599Z,84.86
2022-11-16T00:17:26.155Z,85.01
2022-11-16T00:19:30.500Z,84.59
2022-11-16T00:21:33.881Z,84.83
2022-11-16T00:23:38.435Z,84.88
2022-11-16T00:25:41.062Z,85.42
2022-11-16T00:27:43.659Z,85.70
2022-11-16T00:29:46.239Z,85.70
2022-11-16T00:31:49.283Z,85.61
2022-11-16T00:33:53.051Z,85.56
2022-11-16T00:35:57.356Z,86.08
2022-11-16T00:37:59.982Z,86.36
2022-11-16T00:40:02.577Z,86.26
2022-11-16T00:42:05.227Z,86.42
2022-11-16T00:44:08.105Z,86.72
2022-11-16T00:46:11.154Z,86.52
2022-11-16T00:48:13.857Z,86.63
2022-11-16T00:50:17.045Z,86.56
2022-11-16T00:52:21.065Z,86.70
2022-11-16T00:54:23.858Z,86.93
2022-11-16T00:56:26.533Z,87.15
2022-11-16T00:58:29.110Z,86.94
2022-11-16T01:00:32.123Z,86.97
2022-11-16T01:02:34.751Z,86.97
2022-11-16T01:04:37.382Z,87.37
2022-11-16T01:06:40.027Z,87.71
2022-11-16T01:08:44.915Z,87.64
2022-11-16T01:10:47.495Z,87.70
2022-11-16T01:12:50.448Z,88.00
2022-11-16T01:14:53.110Z,87.68
2022-11-16T01:16:55.744Z,88.07
2022-11-16T01:18:58.620Z,87.89
2022-11-16T01:21:01.218Z,87.67
2022-11-16T01:23:03.832Z,87.58
2022-11-16T01:25:09.103Z,87.69
2022-11-16T01:27:11.782Z,87.60
2022-11-16T01:29:14.679Z,87.49
2022-11-16T01:31:17.262Z,87.98
2022-11-16T01:33:19.847Z,87.32
2022-11-16T01:35:22.621Z,87.40
2022-11-16T01:37:25.215Z,87.47
2022-11-16T01:39:27.790Z,87.77
2022-11-16T01:41:31.888Z,88.32
2022-11-16T01:43:51.885Z,88.08
2022-11-16T01:45:55.106Z,88.10
2022-11-16T01:47:57.794Z,88.38
2022-11-16T01:50:07.545Z,88.46
2022-11-16T01:52:14.228Z,88.11
2022-11-16T01:54:17.610Z,87.97
2022-11-16T01:56:21.346Z,87.92
2022-11-16T01:58:27.315Z,87.75
2022-11-16T02:00:30.037Z,87.83
2022-11-16T02:02:32.671Z,87.36
2022-11-16T02:04:35.318Z,87.67
2022-11-16T02:06:55.080Z,87.37
2022-11-16T02:09:30.687Z,87.72
2022-11-16T02:11:48.692Z,87.61
2022-11-16T02:14:04.819Z,87.35
2022-11-16T02:16:15.629Z,87.80
2022-11-16T02:18:25.686Z,88.38
2022-11-16T02:21:04.552Z,88.44
2022-11-16T02:23:51.813Z,88.81
2022-11-16T02:26:05.841Z,88.41
2022-11-16T02:28:26.789Z,88.64
2022-11-16T02:30:30.964Z,89.05
2022-11-16T02:32:38.600Z,89.36
2022-11-16T02:34:46.178Z,89.39
2022-11-16T02:36:52.851Z,89.26
2022-11-16T02:39:01.853Z,89.59
2022-11-16T02:41:08.740Z,89.90
2022-11-16T02:43:16.502Z,89.67
2022-11-16T02:45:23.282Z,89.48
2022-11-16T02:47:32.837Z,89.77
2022-11-16T02:49:41.268Z,89.80
2022-11-16T02:51:45.735Z,89.63
2022-11-16T02:54:02.144Z,89.70
2022-11-16T02:56:04.802Z,89.82
2022-11-16T02:58:10.667Z,90.18
2022-11-16T03:00:19.365Z,90.00
2022-11-16T03:02:28.571Z,90.14
2022-11-16T03:04:38.505Z,89.97
2022-11-16T03:06:43.682Z,90.06
2022-11-16T03:08:53.184Z,90.27
2022-11-16T03:11:18.479Z,90.22
2022-11-16T03:13:24.172Z,90.13
2022-11-16T03:15:27.170Z,90.32
2022-11-16T03:17:35.347Z,90.02
2022-11-16T03:19:45.052Z,90.18
2022-11-16T03:21:52.899Z,90.37
2022-11-16T03:23:55.662Z,90.14
2022-11-16T03:25:59.866Z,90.34
2022-11-16T03:28:07.931Z,90.16
2022-11-16T03:30:13.916Z,89.95
2022-11-16T03:32:22.219Z,89.86
2022-11-16T03:34:30.382Z,90.04
2022-11-16T03:36:36.319Z,90.22
2022-11-16T03:38:41.699Z,89.81
2022-11-16T03:40:47.446Z,89.94
2022-11-16T03:42:51.053Z,89.81
2022-11-16T03:44:54.779Z,89.45
2022-11-16T03:46:57.452Z,89.66
2022-11-16T03:49:01.826Z,89.42
2022-11-16T03:51:05.082Z,89.44
2022-11-16T03:53:09.055Z,89.64
2022-11-16T03:55:11.768Z,89.83
2022-11-16T03:57:18.031Z,89.57
2022-11-16T03:59:20.682Z,89.49
2022-11-16T04:01:23.352Z,89.40
2022-11-16T04:03:25.972Z,89.58
2022-11-16T04:05:46.467Z,89.39
2022-11-16T04:08:07.771Z,89.57
2022-11-16T04:10:30.094Z,89.43
2022-11-16T04:12:50.658Z,89.10
2022-11-16T04:15:11.015Z,89.53
2022-11-16T04:17:32.089Z,89.51
2022-11-16T04:19:55.356Z,89.35
2022-11-16T04:22:21.551Z,88.92
2022-11-16T04:24:26.662Z,88.98
2022-11-16T04:26:44.554Z,88.67
2022-11-16T04:28:47.186Z,88.76
2022-11-16T04:31:09.070Z,89.25
2022-11-16T04:33:29.120Z,89.18
2022-11-16T04:35:49.499Z,89.10
2022-11-16T04:37:53.382Z,88.81
2022-11-16T04:39:55.997Z,88.74
2022-11-16T04:42:15.231Z,89.16
2022-11-16T04:44:17.887Z,89.17
2022-11-16T04:46:37.949Z,88.74
2022-11-16T04:48:40.575Z,88.91
2022-11-16T04:50:43.499Z,89.20
2022-11-16T04:52:46.540Z,89.36
2022-11-16T04:54:49.148Z,89.20
2022-11-16T04:56:51.782Z,89.80
2022-11-16T04:58:55.707Z,89.47
2022-11-16T05:00:58.326Z,89.70
2022-11-16T05:03:01.829Z,89.43
2022-11-16T05:05:04.976Z,89.77
2022-11-16T05:07:10.948Z,90.12
2022-11-16T05:09:13.941Z,89.64
2022-11-16T05:11:16.583Z,89.81
2022-11-16T05:13:19.178Z,89.71
2022-11-16T05:15:23.270Z,89.95
2022-11-16T05:17:27.369Z,89.15
2022-11-16T05:19:47.494Z,89.30
2022-11-16T05:21:50.142Z,89.56
2022-11-16T05:24:10.298Z,89.89
2022-11-16T05:26:12.926Z,89.77
2022-11-16T05:28:15.531Z,89.39
2022-11-16T05:30:18.668Z,89.70
2022-11-16T05:32:24.672Z,89.65
2022-11-16T05:34:27.498Z,89.98
2022-11-16T05:36:30.142Z,89.66
2022-11-16T05:38:33.108Z,89.19
2022-11-16T05:40:35.971Z,89.13
2022-11-16T05:42:38.576Z,88.87
2022-11-16T05:44:41.219Z,88.88
2022-11-16T05:46:44.794Z,88.85
2022-11-16T05:48:49.124Z,88.82
2022-11-16T05:50:51.767Z,89.04
2022-11-16T05:52:54.335Z,89.03
2022-11-16T05:54:56.910Z,89.33
2022-11-16T05:56:59.528Z,89.47
2022-11-16T05:59:02.809Z,89.50
2022-11-16T06:01:05.453Z,89.72
2022-11-16T06:03:08.133Z,88.55
2022-11-16T06:05:12.248Z,88.95
2022-11-16T06:07:14.849Z,88.92
2022-11-16T06:09:17.596Z,88.94
2022-11-16T06:11:20.200Z,89.06
2022-11-16T06:13:22.805Z,89.07
2022-11-16T06:15:25.436Z,88.96
2022-11-16T06:17:27.985Z,88.70
2022-11-16T06:19:32.683Z,88.86
2022-11-16T06:21:36.765Z,89.34
2022-11-16T06:23:39.498Z,88.92
2022-11-16T06:25:42.244Z,88.96
2022-11-16T06:27:44.894Z,88.91
2022-11-16T06:29:47.443Z,88.98
2022-11-16T06:31:50.156Z,89.17
2022-11-16T06:33:52.709Z,88.78
2022-11-16T06:35:55.287Z,88.87
2022-11-16T06:37:59.705Z,89.00
2022-11-16T06:40:02.302Z,88.89
2022-11-16T06:42:05.144Z,88.65
2022-11-16T06:44:07.687Z,88.84
2022-11-16T06:46:10.283Z,88.67
2022-11-16T06:48:12.877Z,88.50
2022-11-16T06:50:19.078Z,88.40
2022-11-16T06:52:21.812Z,88.01
2022-11-16T06:54:25.785Z,88.18
2022-11-16T06:56:28.418Z,88.08
2022-11-16T06:58:32.609Z,88.00
2022-11-16T07:00:35.527Z,87.90
2022-11-16T07:02:38.429Z,87.61
2022-11-16T07:04:41.005Z,87.62
2022-11-16T07:06:43.709Z,87.58
2022-11-16T07:08:46.304Z,87.60
2022-11-16T07:10:50.234Z,87.68
2022-11-16T07:12:52.866Z,87.74
2022-11-16T07:14:55.428Z,87.58
2022-11-16T07:17:00.357Z,87.83
2022-11-16T07:19:04.963Z,87.79
2022-11-16T07:21:07.966Z,87.96
2022-11-16T07:23:14.179Z,87.71
2022-11-16T07:25:17.215Z,87.75
2022-11-16T07:27:21.142Z,88.43
2022-11-16T07:29:24.523Z,88.23
2022-11-16T07:31:27.104Z,88.31
2022-11-16T07:33:29.996Z,88.57
2022-11-16T07:35:32.656Z,88.41
2022-11-16T07:37:36.496Z,88.24
2022-11-16T07:39:39.101Z,88.33
2022-11-16T07:41:42.456Z,88.32
2022-11-16T07:43:52.581Z,87.93
2022-11-16T07:46:21.426Z,88.07
2022-11-16T07:48:20.936Z,88.01
2022-11-16T07:50:23.553Z,87.86
2022-11-16T07:52:26.118Z,87.94
2022-11-16T07:54:28.711Z,88.16
2022-11-16T07:56:31.290Z,88.28
2022-11-16T07:58:35.684Z,88.78
2022-11-16T08:00:39.833Z,88.68
2022-11-16T08:02:42.412Z,88.90
2022-11-16T08:04:45.236Z,88.89
2022-11-16T08:06:51.635Z,88.41
2022-11-16T08:08:58.300Z,87.79
2022-11-16T08:11:02.249Z,88.36
2022-11-16T08:13:05.260Z,88.51
2022-11-16T08:15:08.840Z,88.37
2022-11-16T08:17:13.008Z,88.54
2022-11-16T08:19:15.576Z,88.14
2022-11-16T08:21:20.035Z,88.14
2022-11-16T08:23:22.639Z,88.35
2022-11-16T08:25:25.544Z,88.01
2022-11-16T08:27:28.587Z,87.14
2022-11-16T08:29:31.275Z,86.95
2022-11-16T08:31:33.969Z,86.93
2022-11-16T08:33:38.051Z,87.52
2022-11-16T08:35:40.609Z,87.34
2022-11-16T08:37:43.202Z,87.71
2022-11-16T08:39:45.824Z,88.24
2022-11-16T08:41:48.391Z,88.23
2022-11-16T08:43:53.281Z,88.42
2022-11-16T08:45:56.048Z,88.58
2022-11-16T08:48:04.049Z,88.45
2022-11-16T08:50:08.850Z,88.58
2022-11-16T08:52:11.498Z,88.07
2022-11-16T08:54:14.091Z,88.28
2022-11-16T08:56:18.655Z,88.26
2022-11-16T08:58:21.354Z,88.04
2022-11-16T09:00:24.059Z,88.08
2022-11-16T09:02:26.692Z,88.07
2022-11-16T09:04:34.101Z,88.10
2022-11-16T09:06:40.729Z,88.41
2022-11-16T09:08:45.172Z,88.58
2022-11-16T09:10:47.712Z,88.48
2022-11-16T09:12:50.654Z,88.15
2022-11-16T09:14:53.274Z,88.21
2022-11-16T09:16:55.873Z,87.54
2022-11-16T09:18:58.577Z,87.25
2022-11-16T09:21:01.131Z,86.77
2022-11-16T09:23:05.048Z,86.33
2022-11-16T09:25:09.377Z,85.03
2022-11-16T09:27:12.334Z,84.88
2022-11-16T09:29:16.690Z,84.01
2022-11-16T09:31:23.385Z,84.51
2022-11-16T09:33:26.862Z,84.58
2022-11-16T09:35:29.495Z,84.31
2022-11-16T09:37:32.051Z,83.80
2022-11-16T09:39:36.018Z,83.39
2022-11-16T09:42:08.242Z,81.55
2022-11-16T09:44:17.799Z,81.44
2022-11-16T09:46:26.668Z,81.18
2022-11-16T09:48:29.690Z,80.54
2022-11-16T09:50:45.856Z,78.91
2022-11-16T09:52:52.451Z,78.63
2022-11-16T09:54:59.014Z,76.58
2022-11-16T09:57:12.036Z,77.34
2022-11-16T09:59:22.793Z,76.69
2022-11-16T10:01:30.230Z,76.47
2022-11-16T10:03:41.692Z,77.33
2022-11-16T10:05:49.659Z,77.43
2022-11-16T10:07:59.789Z,76.38
2022-11-16T10:10:03.753Z,76.18
2022-11-16T10:12:19.375Z,73.66
2022-11-16T10:14:41.816Z,72.17
2022-11-16T10:16:50.379Z,71.79
2022-11-16T10:18:58.406Z,71.85
2022-11-16T10:21:33.105Z,72.16
2022-11-16T10:23:49.988Z,72.50
2022-11-16T10:25:58.985Z,72.91
2022-11-16T10:28:36.232Z,71.74
2022-11-16T10:30:47.017Z,71.73
2022-11-16T10:32:56.026Z,72.15
2022-11-16T10:35:05.235Z,69.76
2022-11-16T10:37:08.759Z,69.97
2022-11-16T10:39:14.453Z,70.24
2022-11-16T10:41:23.683Z,70.25
2022-11-16T10:43:29.408Z,68.90
2022-11-16T10:45:40.620Z,68.53
2022-11-16T10:47:50.539Z,68.02
2022-11-16T10:49:57.972Z,67.84
2022-11-16T10:52:00.631Z,67.73
2022-11-16T10:54:04.786Z,66.62
2022-11-16T10:56:22.177Z,65.80
2022-11-16T10:58:24.762Z,66.76
2022-11-16T11:00:36.096Z,66.96
2022-11-16T11:02:39.898Z,66.97
2022-11-16T11:04:42.531Z,65.36
2022-11-16T11:06:45.829Z,64.35
2022-11-16T11:08:48.432Z,64.08
2022-11-16T11:11:01.648Z,63.97
2022-11-16T11:13:20.812Z,64.38
2022-11-16T11:15:27.086Z,64.78
2022-11-16T11:17:31.013Z,64.10
2022-11-16T11:19:33.600Z,64.06
2022-11-16T11:21:36.173Z,63.19
2022-11-16T11:23:44.475Z,63.72
2022-11-16T11:25:54.427Z,63.02
2022-11-16T11:28:08.697Z,63.14
2022-11-16T11:30:20.443Z,63.01
2022-11-16T11:32:26.131Z,62.48
2022-11-16T11:34:30.908Z,63.31
2022-11-16T11:36:38.413Z,63.12
2022-11-16T11:38:57.589Z,63.43
2022-11-16T11:41:01.934Z,63.27
2022-11-16T11:43:06.967Z,63.47
2022-11-16T11:45:16.187Z,63.92
2022-11-16T11:47:56.122Z,64.36
2022-11-16T11:49:57.502Z,64.28
2022-11-16T11:52:05.113Z,64.75
2022-11-16T11:54:08.739Z,65.01
2022-11-16T11:56:12.900Z,64.79
2022-11-16T11:58:21.969Z,64.45
2022-11-16T12:00:26.225Z,64.31
2022-11-16T12:02:45.598Z,63.22
2022-11-16T12:05:18.603Z,63.11
2022-11-16T12:07:45.129Z,62.23
2022-11-16T12:09:58.066Z,62.41
2022-11-16T12:12:15.003Z,62.28
2022-11-16T12:14:33.710Z,63.03
2022-11-16T12:16:42.770Z,61.38
2022-11-16T12:19:05.570Z,61.18
2022-11-16T12:21:14.042Z,61.25
2022-11-16T12:23:37.688Z,61.61
2022-11-16T12:25:49.403Z,62.06
2022-11-16T12:28:04.041Z,61.92
2022-11-16T12:30:14.530Z,61.34
2022-11-16T12:32:39.841Z,60.88
2022-11-16T12:35:01.202Z,61.40
2022-11-16T12:37:11.909Z,61.41
2022-11-16T12:39:24.846Z,61.45
2022-11-16T12:41:44.877Z,61.61
2022-11-16T12:43:56.594Z,61.30
2022-11-16T12:46:12.453Z,60.83
2022-11-16T12:48:45.195Z,60.38
2022-11-16T12:50:58.053Z,58.95
2022-11-16T12:53:19.811Z,59.86
2022-11-16T12:55:30.212Z,59.89
2022-11-16T12:57:45.143Z,59.93
2022-11-16T13:00:05.928Z,60.32
2022-11-16T13:02:24.423Z,60.02
2022-11-16T13:04:31.643Z,60.03
2022-11-16T13:06:39.658Z,60.15
2022-11-16T13:08:49.413Z,59.98
2022-11-16T13:10:59.410Z,60.68
2022-11-16T13:13:35.007Z,60.85
2022-11-16T13:15:34.687Z,60.20
2022-11-16T13:17:40.933Z,60.92
2022-11-16T13:19:47.907Z,60.02
2022-11-16T13:21:59.888Z,60.08
2022-11-16T13:24:23.402Z,60.35
2022-11-16T13:26:32.506Z,60.73
2022-11-16T13:28:41.221Z,60.28
2022-11-16T13:30:52.188Z,59.96
2022-11-16T13:33:13.684Z,58.19
2022-11-16T13:35:18.602Z,57.96
2022-11-16T13:37:44.374Z,57.71
2022-11-16T13:40:27.160Z,57.82
2022-11-16T13:42:31.518Z,57.29
2022-11-16T13:44:34.867Z,57.19
2022-11-16T13:46:55.472Z,56.82
2022-11-16T13:49:00.097Z,56.66
2022-11-16T13:51:04.968Z,56.32
2022-11-16T13:54:17.578Z,57.10
2022-11-16T13:55:41.537Z,57.78
2022-11-16T13:57:51.967Z,57.57
2022-11-16T14:00:10.165Z,57.26
2022-11-16T14:02:31.811Z,56.39
2022-11-16T14:04:54.519Z,56.46
2022-11-16T14:07:00.429Z,56.82
2022-11-16T14:09:03.148Z,56.96
2022-11-16T14:11:26.626Z,57.38
2022-11-16T14:13:41.167Z,57.74
2022-11-16T14:15:43.807Z,57.97
2022-11-16T14:17:54.965Z,58.51
2022-11-16T14:19:58.968Z,58.11
2022-11-16T14:22:09.046Z,57.87
2022-11-16T14:24:22.420Z,57.82
2022-11-16T14:26:38.271Z,58.53
2022-11-16T14:29:08.679Z,58.75
2022-11-16T14:31:21.435Z,59.15
2022-11-16T14:33:33.189Z,58.50
2022-11-16T14:35:40.653Z,58.12
2022-11-16T14:37:43.437Z,58.16
2022-11-16T14:39:46.310Z,57.94
2022-11-16T14:41:49.039Z,57.73
2022-11-16T14:43:54.736Z,57.38
2022-11-16T14:46:02.462Z,57.39
2022-11-16T14:48:07.951Z,57.90
2022-11-16T14:50:19.981Z,58.32
2022-11-16T14:52:31.361Z,58.97
2022-11-16T14:54:42.532Z,59.69
2022-11-16T14:56:59.345Z,60.35
2022-11-16T14:59:03.265Z,59.74
2022-11-16T15:01:08.827Z,60.05
2022-11-16T15:03:13.182Z,60.41
2022-11-16T15:05:17.811Z,60.71
2022-11-16T15:07:23.539Z,61.12
2022-11-16T15:09:30.832Z,61.67
2022-11-16T15:11:54.827Z,61.66
2022-11-16T15:13:57.510Z,61.94
2022-11-16T15:16:11.358Z,62.24
2022-11-16T15:18:17.878Z,62.76
2022-11-16T15:20:24.405Z,62.95
2022-11-16T15:22:29.555Z,63.11
2022-11-16T15:24:34.821Z,63.14
2022-11-16T15:26:39.411Z,63.48
2022-11-16T15:28:47.184Z,63.71
2022-11-16T15:30:55.209Z,64.13
2022-11-16T15:32:58.358Z,64.15
2022-11-16T15:35:05.119Z,64.07
2022-11-16T15:37:12.054Z,64.28
2022-11-16T15:39:19.499Z,64.66
2022-11-16T15:41:25.394Z,64.85
2022-11-16T15:43:32.859Z,65.42
2022-11-16T15:45:38.487Z,65.38
2022-11-16T15:47:41.674Z,65.24
2022-11-16T15:49:49.529Z,65.71
2022-11-16T15:51:52.175Z,65.89
2022-11-16T15:53:56.332Z,65.79
2022-11-16T15:55:58.972Z,65.53
2022-11-16T15:58:12.776Z,65.59
2022-11-16T16:00:23.470Z,65.85
2022-11-16T16:02:28.530Z,66.09
2022-11-16T16:04:31.346Z,65.86
2022-11-16T16:06:45.635Z,66.04
2022-11-16T16:09:05.218Z,65.81
2022-11-16T16:11:11.760Z,66.00
2022-11-16T16:13:27.831Z,66.37
2022-11-16T16:15:33.906Z,66.36
2022-11-16T16:17:36.506Z,66.27
2022-11-16T16:19:42.214Z,65.96
2022-11-16T16:21:46.912Z,65.71
2022-11-16T16:23:51.363Z,66.04
2022-11-16T16:25:54.008Z,66.12
2022-11-16T16:27:56.686Z,66.17
2022-11-16T16:30:06.897Z,66.30
2022-11-16T16:32:14.524Z,66.27
2022-11-16T16:34:17.899Z,66.47
2022-11-16T16:36:20.504Z,66.27
2022-11-16T16:38:23.142Z,66.32
2022-11-16T16:40:26.147Z,66.68
2022-11-16T16:42:28.770Z,66.49
2022-11-16T16:44:31.401Z,66.57
2022-11-16T16:46:35.365Z,66.49
2022-11-16T16:48:44.631Z,66.75
2022-11-16T16:50:47.523Z,67.06
2022-11-16T16:52:50.074Z,67.03
2022-11-16T16:54:52.681Z,67.10
2022-11-16T16:56:55.846Z,66.48
2022-11-16T16:58:58.397Z,66.58
2022-11-16T17:01:04.796Z,66.64
2022-11-16T17:03:11.911Z,66.77
2022-11-16T17:05:14.522Z,66.84
2022-11-16T17:07:17.527Z,66.59
2022-11-16T17:09:20.933Z,67.07
2022-11-16T17:11:23.582Z,66.52
2022-11-16T17:13:26.223Z,67.45
2022-11-16T17:15:28.905Z,67.41
2022-11-16T17:17:32.608Z,67.30
2022-11-16T17:19:36.988Z,66.93
2022-11-16T17:21:39.610Z,67.38
2022-11-16T17:23:42.173Z,67.40
2022-11-16T17:25:44.807Z,67.92
2022-11-16T17:27:48.155Z,67.75
2022-11-16T17:29:50.863Z,68.20
2022-11-16T17:31:53.466Z,67.81
2022-11-16T17:33:57.458Z,68.05
2022-11-16T17:36:03.745Z,68.22
2022-11-16T17:38:06.314Z,68.56
2022-11-16T17:40:10.432Z,68.85
2022-11-16T17:42:15.554Z,68.56
2022-11-16T17:44:21.907Z,68.96
2022-11-16T17:46:26.232Z,68.34
2022-11-16T17:48:28.781Z,68.47
2022-11-16T17:50:31.379Z,68.12
2022-11-16T17:52:35.822Z,68.46
2022-11-16T17:54:38.445Z,67.92
2022-11-16T17:56:41.152Z,68.21
2022-11-16T17:58:45.032Z,68.08
2022-11-16T18:00:49.738Z,68.24
2022-11-16T18:02:52.314Z,67.83
2022-11-16T18:04:54.919Z,67.89
2022-11-16T18:06:59.638Z,67.72
2022-11-16T18:09:03.728Z,68.06
2022-11-16T18:11:07.514Z,67.87
2022-11-16T18:13:10.159Z,67.92
2022-11-16T18:15:27.986Z,67.91
2022-11-16T18:17:32.482Z,67.57
2022-11-16T18:19:35.365Z,67.72
2022-11-16T18:21:40.251Z,67.60
2022-11-16T18:23:43.289Z,68.10
2022-11-16T18:25:47.272Z,68.23
2022-11-16T18:27:52.662Z,67.93
2022-11-16T18:29:55.273Z,67.77
2022-11-16T18:31:57.924Z,67.91
2022-11-16T18:34:02.015Z,67.79
2022-11-16T18:36:05.787Z,68.23
2022-11-16T18:38:12.864Z,68.03
2022-11-16T18:40:15.774Z,68.41
2022-11-16T18:42:19.729Z,68.10
2022-11-16T18:44:22.363Z,67.80
2022-11-16T18:46:26.874Z,67.98
2022-11-16T18:48:29.624Z,68.05
2022-11-16T18:50:32.284Z,68.16
2022-11-16T18:52:34.882Z,68.42
2022-11-16T18:54:37.493Z,68.31
2022-11-16T18:56:40.087Z,67.90
2022-11-16T18:58:50.320Z,68.25
2022-11-16T19:00:54.909Z,68.21
2022-11-16T19:02:57.619Z,68.22
2022-11-16T19:05:00.273Z,68.35
2022-11-16T19:07:02.902Z,68.75
2022-11-16T19:09:09.557Z,68.55
2022-11-16T19:11:14.416Z,68.28
2022-11-16T19:13:17.079Z,68.21
2022-11-16T19:15:21.049Z,68.05
2022-11-16T19:17:24.842Z,68.35
2022-11-16T19:19:29.208Z,68.98
2022-11-16T19:21:35.322Z,69.04
2022-11-16T19:23:38.815Z,69.01
2022-11-16T19:25:41.413Z,69.34
2022-11-16T19:27:44.128Z,69.51
2022-11-16T19:29:46.705Z,69.88
2022-11-16T19:31:50.839Z,70.03
2022-11-16T19:33:57.962Z,69.70
2022-11-16T19:36:00.567Z,69.71
2022-11-16T19:38:03.162Z,70.01
2022-11-16T19:40:06.951Z,70.09
2022-11-16T19:42:09.606Z,70.41
2022-11-16T19:44:12.344Z,70.22
2022-11-16T19:46:17.520Z,69.88
2022-11-16T19:48:21.455Z,70.04
2022-11-16T19:50:25.262Z,70.52
2022-11-16T19:52:27.941Z,70.39
2022-11-16T19:54:30.629Z,70.40
2022-11-16T19:56:33.383Z,70.27
2022-11-16T19:58:37.204Z,70.43
2022-11-16T20:00:40.116Z,70.57
2022-11-16T20:02:42.746Z,70.30
2022-11-16T20:04:46.781Z,70.76
2022-11-16T20:06:49.489Z,70.79
2022-11-16T20:08:53.854Z,70.24
2022-11-16T20:10:56.519Z,70.71
2022-11-16T20:12:59.323Z,71.04
2022-11-16T20:15:02.873Z,71.00
2022-11-16T20:17:05.993Z,71.06
2022-11-16T20:19:10.353Z,71.16
2022-11-16T20:21:19.551Z,71.21
2022-11-16T20:23:22.137Z,71.26
2022-11-16T20:25:24.719Z,71.31
2022-11-16T20:27:27.382Z,71.35
2022-11-16T20:29:30.005Z,71.13
2022-11-16T20:31:34.169Z,71.39
2022-11-16T20:33:37.395Z,71.07
2022-11-16T20:35:40.229Z,71.33
2022-11-16T20:37:46.025Z,70.92
2022-11-16T20:39:52.451Z,70.80
2022-11-16T20:41:55.050Z,70.80
2022-11-16T20:43:59.369Z,70.88
2022-11-16T20:46:02.071Z,71.07
2022-11-16T20:48:05.282Z,70.98
2022-11-16T20:50:08.224Z,70.80
2022-11-16T20:52:13.633Z,70.89
2022-11-16T20:54:17.705Z,71.09
2022-11-16T20:56:20.976Z,71.22
2022-11-16T20:58:23.560Z,70.97
2022-11-16T21:00:27.478Z,71.35
2022-11-16T21:02:30.084Z,71.67
2022-11-16T21:04:32.729Z,71.41
2022-11-16T21:06:35.471Z,71.60
2022-11-16T21:08:39.081Z,72.22
2022-11-16T21:10:43.239Z,72.36
2022-11-16T21:13:03.791Z,72.44
2022-11-16T21:15:07.509Z,72.21
2022-11-16T21:17:10.109Z,72.56
2022-11-16T21:19:13.363Z,72.60
2022-11-16T21:21:15.985Z,72.31
2022-11-16T21:23:18.609Z,72.29
2022-11-16T21:25:21.266Z,72.26
2022-11-16T21:27:25.251Z,72.20
2022-11-16T21:29:28.153Z,72.43
2022-11-16T21:31:33.237Z,72.19
2022-11-16T21:33:36.133Z,72.32
2022-11-16T21:35:39.161Z,72.45
2022-11-16T21:37:41.770Z,72.67
2022-11-16T21:39:44.322Z,72.94
2022-11-16T21:41:46.959Z,73.17
2022-11-16T21:43:51.182Z,72.95
2022-11-16T21:45:54.153Z,72.66
2022-11-16T21:47:57.453Z,72.71
2022-11-16T21:50:30.077Z,72.66
2022-11-16T21:52:22.620Z,72.64
2022-11-16T21:54:45.190Z,72.89
2022-11-16T21:56:47.810Z,72.80
2022-11-16T21:58:52.784Z,72.43
2022-11-16T22:00:56.430Z,73.10
2022-11-16T22:02:59.298Z,72.70
2022-11-16T22:05:19.617Z,73.11
2022-11-16T22:07:36.707Z,73.14
2022-11-16T22:09:39.455Z,73.31
2022-11-16T22:11:42.019Z,73.29
2022-11-16T22:13:45.218Z,73.15
2022-11-16T22:15:49.355Z,73.15
2022-11-16T22:17:52.018Z,73.22
2022-11-16T22:19:55.116Z,72.55
2022-11-16T22:21:59.223Z,72.98
2022-11-16T22:24:02.612Z,72.75
2022-11-16T22:26:07.680Z,72.61
2022-11-16T22:28:25.736Z,72.56
2022-11-16T22:30:28.332Z,72.61
2022-11-16T22:32:32.356Z,72.75
2022-11-16T22:34:34.958Z,72.82
2022-11-16T22:36:37.516Z,72.90
2022-11-16T22:38:40.153Z,72.92
2022-11-16T22:40:48.953Z,72.82
2022-11-16T22:42:51.811Z,72.29
2022-11-16T22:44:54.394Z,72.74
2022-11-16T22:46:57.051Z,72.61
2022-11-16T22:49:01.050Z,73.04
2022-11-16T22:51:05.734Z,72.92
2022-11-16T22:53:08.401Z,72.63
2022-11-16T22:55:11.358Z,72.68
2022-11-16T22:57:13.923Z,73.08
2022-11-16T22:59:16.512Z,72.82
2022-11-16T23:01:19.839Z,73.17
2022-11-16T23:03:22.598Z,72.88
2022-11-16T23:05:26.662Z,72.76
2022-11-16T23:07:29.301Z,72.98
2022-11-16T23:09:32.114Z,73.00
2022-11-16T23:11:52.402Z,73.10
2022-11-16T23:14:15.563Z,72.78
2022-11-16T23:16:18.133Z,72.35
2022-11-16T23:18:20.741Z,72.37
2022-11-16T23:20:40.937Z,72.79
2022-11-16T23:22:58.844Z,72.21
2022-11-16T23:25:18.887Z,72.32
2022-11-16T23:27:30.482Z,72.52
2022-11-16T23:29:33.346Z,72.36
2022-11-16T23:31:36.025Z,72.26
2022-11-16T23:33:47.817Z,72.26
2022-11-16T23:35:50.278Z,72.60
2022-11-16T23:37:56.218Z,72.52
2022-11-16T23:39:58.789Z,72.49
2022-11-16T23:42:19.221Z,72.29
2022-11-16T23:44:21.818Z,72.50
2022-11-16T23:46:24.553Z,72.75
2022-11-16T23:48:27.156Z,72.92
2022-11-16T23:50:29.731Z,73.28
2022-11-16T23:52:32.287Z,73.19
2022-11-16T23:54:36.241Z,73.33
2022-11-16T23:56:38.782Z,73.20
2022-11-16T23:58:41.365Z,73.22
